ROCKY HARBOUR CS/NF, current weather conditions

sailwx.info

Wind from 220 at 4 knots

Air temperature 1.0° C
Dewpoint 0.6° C

Last reported at 2014-Nov-21 10:00 UTC.
Time now 2014-Nov-21 12:05 UTC

Location: N 49°34' W 057°53'.
View on Google Maps.

See reports from other nearby stations

  
Tides and Currents Weather Stations Pressure Air Temp Water Temp Dewpoint Dewpoint Depression Visibility Wind Speed Wind Dir Waves Ship Positions
date/time (UTC)wind fromknots sea level pressurealtimeterstation pressurevisibilityair tempwater tempwave heightnotes
2014-Nov-21 10:00 220 4 1.0
2014-Nov-21 09:00 190 3 1.0
2014-Nov-21 08:00 170 4 0.6
2014-Nov-21 07:00 160 6 -0.2
2014-Nov-21 06:00 160 6 -0.1
2014-Nov-21 05:00 160 6 -0.4
2014-Nov-21 04:00 190 2 -1.1
2014-Nov-21 03:00 160 6 -1.0
2014-Nov-21 02:00 170 7 gusting 18 -2.0
2014-Nov-21 01:00 160 10 gusting 17 -2.0
2014-Nov-21 00:00 160 7 gusting 17 -2.2
2014-Nov-20 23:00 150 5 -2.6
2014-Nov-20 22:00 140 3 -2.0
2014-Nov-20 21:00 150 3 -2.0
2014-Nov-20 20:00 220 4 -1.6
2014-Nov-20 19:00 230 7 -1.0
2014-Nov-20 18:00 230 9 gusting 16 -1.0
2014-Nov-20 17:00 240 8 1.0
2014-Nov-20 16:00 240 8 -0.0
2014-Nov-20 15:00 250 13 gusting 21 -1.8
2014-Nov-20 14:00 250 8 gusting 14 -1.4
2014-Nov-20 13:00 260 13 gusting 20 -1.6
2014-Nov-20 12:00 250 17 gusting 25 -1.7
2014-Nov-20 11:00 250 18 gusting 24 -2.0
2014-Nov-20 10:00 250 21 gusting 29 -1.6
2014-Nov-20 09:00 250 19 gusting 27 -1.5
2014-Nov-20 08:00 270 11 gusting 19 -2.8
2014-Nov-20 07:00 270 13 gusting 26 -3.0
2014-Nov-20 06:00 280 12 gusting 22 -2.5
2014-Nov-20 05:00 270 18 gusting 29 -2.0
2014-Nov-20 04:00 240 27 gusting 40 -2.0
2014-Nov-20 03:00 260 20 gusting 33 -2.6
2014-Nov-20 02:00 250 25 gusting 42 -2.1
2014-Nov-20 01:00 260 21 gusting 34 -1.2
2014-Nov-20 00:00 260 20 gusting 34 -0.6
2014-Nov-19 23:00 250 25 gusting 35 -0.5
2014-Nov-19 22:00 250 28 gusting 41 -0.6
2014-Nov-19 21:00 240 28 gusting 41 -1.0
2014-Nov-19 20:00 250 27 gusting 41 -0.8
2014-Nov-19 19:00 250 27 gusting 39 -2.0
2014-Nov-19 18:00 250 26 gusting 36 -1.0
2014-Nov-19 17:00 250 23 gusting 40 -2.0
2014-Nov-19 16:00 240 19 gusting 32 -0.0
2014-Nov-19 15:00 250 15 gusting 27 -0.0
2014-Nov-19 14:00 240 19 gusting 34 -0.6
2014-Nov-19 13:00 230 13 gusting 22 -0.9
2014-Nov-19 12:00 230 15 gusting 27 -1.3